Time;durP1;ratioP1;P1;durP2;ratioP2;P2;SDS_P1;SDS_P2;PMS_P1;PMS_P2;Temp;Humidity;BMP_temperature;BMP_pressure;BME280_temperature;BME280_humidity;BME280_pressure;Samples;Min_cycle;Max_cycle;Signal;HPM_P1;HPM_P2
2023/06/02 00:00:44;;;;;;;10.98;6.90;;;15.00;95.00;;;;;;4198144;28;20071;-57
2023/06/02 00:02:51;;;;;;;11.73;6.03;;;15.00;95.10;;;;;;4199066;28;20044;-57
2023/06/02 00:04:53;;;;;;;13.90;6.63;;;15.00;95.20;;;;;;4198872;28;20048;-57
2023/06/02 00:07:00;;;;;;;12.90;6.75;;;15.00;95.10;;;;;;4199027;28;20051;-57
2023/06/02 00:09:04;;;;;;;15.32;6.20;;;14.90;95.20;;;;;;4198052;28;20052;-57
2023/06/02 00:11:09;;;;;;;16.52;7.25;;;14.90;95.20;;;;;;4197877;28;20497;-57
2023/06/02 00:13:12;;;;;;;11.10;6.65;;;14.90;95.10;;;;;;4198880;28;20165;-57
2023/06/02 00:15:15;;;;;;;14.13;7.00;;;14.80;95.40;;;;;;4199275;28;20123;-57
2023/06/02 00:17:19;;;;;;;13.05;6.70;;;14.60;95.70;;;;;;4197907;28;20052;-57
2023/06/02 00:19:23;;;;;;;;;;;14.60;95.80;;;;;;4199254;28;20052;-57
2023/06/02 00:21:26;;;;;;;14.18;6.55;;;14.60;95.90;;;;;;4197798;28;19946;-57
2023/06/02 00:23:29;;;;;;;13.88;7.32;;;14.50;96.00;;;;;;4198972;28;20055;-57
2023/06/02 00:25:33;;;;;;;16.55;7.15;;;14.40;96.20;;;;;;4198825;28;20123;-56
2023/06/02 00:27:35;;;;;;;15.23;7.50;;;14.40;96.30;;;;;;4214100;28;20044;-57
2023/06/02 00:29:39;;;;;;;15.88;8.23;;;14.40;96.10;;;;;;4215670;28;20074;-56
2023/06/02 00:31:41;;;;;;;15.15;8.10;;;14.40;96.40;;;;;;4214393;28;20158;-56
2023/06/02 00:33:44;;;;;;;17.13;7.53;;;14.40;96.50;;;;;;4211796;28;20056;-56
2023/06/02 00:35:46;;;;;;;15.50;7.80;;;14.30;96.60;;;;;;4198606;28;20128;-57
2023/06/02 00:37:48;;;;;;;14.77;8.15;;;14.30;96.70;;;;;;4199928;28;20048;-57
2023/06/02 00:39:50;;;;;;;14.45;8.02;;;14.40;96.60;;;;;;4215371;28;20143;-56
2023/06/02 00:41:53;;;;;;;13.55;7.85;;;14.30;96.70;;;;;;4214610;28;20105;-56
2023/06/02 00:43:56;;;;;;;15.57;8.35;;;14.30;96.90;;;;;;4215490;28;20082;-56
2023/06/02 00:45:59;;;;;;;14.30;8.52;;;14.30;96.80;;;;;;4218141;28;20050;-58
2023/06/02 00:48:02;;;;;;;15.02;8.63;;;14.30;96.80;;;;;;4199727;28;20119;-57
2023/06/02 00:50:06;;;;;;;14.20;8.45;;;14.20;96.90;;;;;;4217952;28;20044;-57
2023/06/02 00:52:10;;;;;;;16.88;8.63;;;14.30;96.90;;;;;;4216449;28;20452;-58
2023/06/02 00:54:13;;;;;;;19.10;8.70;;;14.10;97.10;;;;;;4215254;28;20048;-57
2023/06/02 00:56:17;;;;;;;16.73;8.82;;;14.10;97.30;;;;;;4215198;28;20053;-57
2023/06/02 00:58:21;;;;;;;12.57;9.20;;;14.10;97.20;;;;;;4197325;28;20044;-57
2023/06/02 01:00:23;;;;;;;15.52;8.07;;;14.00;97.40;;;;;;4214110;28;20490;-56
2023/06/02 01:02:27;;;;;;;16.27;8.98;;;14.00;97.50;;;;;;4214422;28;20089;-57
2023/06/02 01:04:30;;;;;;;14.63;9.10;;;14.00;97.60;;;;;;4197142;28;20084;-56
2023/06/02 01:06:36;;;;;;;15.45;9.43;;;14.10;97.50;;;;;;4214833;28;20489;-57
2023/06/02 01:08:39;;;;;;;14.13;9.15;;;14.10;97.50;;;;;;4214982;28;20048;-57
2023/06/02 01:10:42;;;;;;;13.55;8.32;;;14.10;97.50;;;;;;4213991;28;20048;-56
2023/06/02 01:12:44;;;;;;;15.88;9.82;;;14.10;97.50;;;;;;4214468;28;20051;-56
2023/06/02 01:14:47;;;;;;;14.35;9.02;;;14.10;97.30;;;;;;4196822;28;20052;-56
2023/06/02 01:16:49;;;;;;;16.92;10.10;;;14.00;97.40;;;;;;4214872;28;20082;-56
2023/06/02 01:18:53;;;;;;;13.30;9.63;;;14.10;97.40;;;;;;4214802;28;20083;-56
2023/06/02 01:21:01;;;;;;;19.13;10.63;;;14.00;97.50;;;;;;4213625;28;20047;-56
2023/06/02 01:23:15;;;;;;;15.95;10.50;;;13.90;97.50;;;;;;4214617;28;20051;-56
2023/06/02 01:25:20;;;;;;;20.98;10.63;;;13.80;97.50;;;;;;4214871;28;20071;-57
2023/06/02 01:27:22;;;;;;;16.83;11.52;;;13.80;97.70;;;;;;4214838;28;20048;-56
2023/06/02 01:29:25;;;;;;;21.48;12.35;;;13.90;97.70;;;;;;4214660;28;20044;-59
2023/06/02 01:31:33;;;;;;;12.60;10.48;;;13.90;97.60;;;;;;4213387;28;20040;-57
2023/06/02 01:33:42;;;;;;;18.23;11.45;;;13.90;97.50;;;;;;4214504;28;20042;-56
2023/06/02 01:35:47;;;;;;;18.85;10.50;;;13.80;97.60;;;;;;4214654;28;20044;-56
2023/06/02 01:37:54;;;;;;;19.30;11.05;;;13.80;97.70;;;;;;4213416;28;20453;-56
2023/06/02 01:39:56;;;;;;;25.23;11.18;;;13.70;97.60;;;;;;4197992;28;20044;-57
2023/06/02 01:42:02;;;;;;;17.92;10.48;;;13.80;97.70;;;;;;4196800;28;20384;-57
2023/06/02 01:44:04;;;;;;;15.30;10.77;;;13.80;97.60;;;;;;4197596;28;20068;-57
2023/06/02 01:46:07;;;;;;;19.05;11.40;;;13.70;97.60;;;;;;4197702;28;20076;-57
2023/06/02 01:48:10;;;;;;;16.70;12.20;;;13.80;97.60;;;;;;4197933;28;20388;-64
2023/06/02 01:50:12;;;;;;;22.60;11.93;;;13.80;97.60;;;;;;4197545;28;20451;-57
2023/06/02 01:52:15;;;;;;;23.75;13.65;;;13.60;97.80;;;;;;4196899;28;20131;-56
2023/06/02 01:54:17;;;;;;;18.30;10.95;;;13.60;98.00;;;;;;4197442;28;20047;-57
2023/06/02 01:56:19;;;;;;;16.75;11.38;;;13.50;98.10;;;;;;4197906;28;20387;-56
2023/06/02 01:58:22;;;;;;;22.48;12.80;;;13.60;97.90;;;;;;4197218;28;20048;-57
2023/06/02 02:00:24;;;;;;;19.75;12.00;;;13.30;98.10;;;;;;4196096;28;20045;-56
2023/06/02 02:02:26;;;;;;;20.00;12.07;;;13.20;98.30;;;;;;4197220;28;20530;-57
2023/06/02 02:04:29;;;;;;;17.15;12.25;;;13.10;98.60;;;;;;4197204;28;20490;-57
2023/06/02 02:06:32;;;;;;;19.73;11.90;;;13.20;98.70;;;;;;4197976;28;20062;-57
2023/06/02 02:08:34;;;;;;;17.67;11.90;;;13.20;98.50;;;;;;4197356;28;20040;-56
2023/06/02 02:10:36;;;;;;;16.55;11.32;;;13.20;98.50;;;;;;4196638;28;20431;-57
2023/06/02 02:12:38;;;;;;;21.38;12.57;;;13.20;98.60;;;;;;4195579;28;20049;-56
2023/06/02 02:14:42;;;;;;;20.23;12.18;;;13.10;98.60;;;;;;4197551;28;20049;-57
2023/06/02 02:16:45;;;;;;;19.85;13.20;;;13.10;98.60;;;;;;4197017;28;20048;-56
2023/06/02 02:18:48;;;;;;;17.00;11.07;;;13.00;98.80;;;;;;4195924;28;20045;-57
2023/06/02 02:20:50;;;;;;;20.10;12.30;;;13.00;99.20;;;;;;4196306;28;20482;-56
2023/06/02 02:22:52;;;;;;;18.00;12.60;;;13.00;99.00;;;;;;4196974;28;20053;-58
2023/06/02 02:24:54;;;;;;;16.00;9.57;;;13.00;98.90;;;;;;4197165;28;20445;-55
2023/06/02 02:26:57;;;;;;;18.27;11.52;;;13.10;99.20;;;;;;4206786;28;20051;-56
2023/06/02 02:28:59;;;;;;;19.52;13.27;;;13.10;98.80;;;;;;4195953;28;20052;-56
2023/06/02 02:31:04;;;;;;;15.90;11.23;;;13.10;98.70;;;;;;4212273;28;20050;-58
2023/06/02 02:33:07;;;;;;;17.35;12.13;;;13.10;98.50;;;;;;4213545;28;20491;-56
2023/06/02 02:35:10;;;;;;;18.13;11.45;;;13.00;98.70;;;;;;4213498;28;20069;-56
2023/06/02 02:37:12;;;;;;;20.52;12.13;;;13.00;98.80;;;;;;4213583;28;20126;-57
2023/06/02 02:39:14;;;;;;;18.10;12.82;;;13.00;98.70;;;;;;4200481;28;20044;-56
2023/06/02 02:41:17;;;;;;;17.17;11.75;;;12.80;98.70;;;;;;4196024;28;20145;-57
2023/06/02 02:43:19;;;;;;;20.83;13.23;;;12.80;99.10;;;;;;4196706;28;20482;-56
2023/06/02 02:45:25;;;;;;;21.10;13.20;;;12.90;98.90;;;;;;4196652;28;20051;-56
2023/06/02 02:47:29;;;;;;;20.38;12.13;;;12.80;99.00;;;;;;4196868;28;20098;-57
2023/06/02 02:49:33;;;;;;;22.65;13.63;;;12.70;99.00;;;;;;4196927;28;20044;-56
2023/06/02 02:51:36;;;;;;;20.15;12.65;;;12.80;98.90;;;;;;4195826;28;20044;-56
2023/06/02 02:53:38;;;;;;;22.35;12.88;;;12.80;98.90;;;;;;4196934;28;20359;-56
2023/06/02 02:55:40;;;;;;;22.20;13.70;;;12.70;99.20;;;;;;4196757;28;20119;-56
2023/06/02 02:57:42;;;;;;;17.38;12.98;;;12.70;99.10;;;;;;4196922;28;20053;-57
2023/06/02 02:59:44;;;;;;;22.25;12.20;;;12.70;99.10;;;;;;4196704;28;20048;-56
2023/06/02 03:01:47;;;;;;;23.73;13.20;;;12.60;99.50;;;;;;4197908;28;20094;-56
2023/06/02 03:03:51;;;;;;;19.90;12.15;;;12.60;99.30;;;;;;4200096;28;20041;-56
2023/06/02 03:05:54;;;;;;;23.30;14.00;;;12.60;99.20;;;;;;4200187;28;20102;-56
2023/06/02 03:07:57;;;;;;;22.70;12.73;;;12.60;99.20;;;;;;4200265;28;20123;-56
2023/06/02 03:09:59;;;;;;;22.38;13.80;;;12.60;99.20;;;;;;4199996;28;20056;-56
2023/06/02 03:12:01;;;;;;;26.73;13.25;;;12.60;99.30;;;;;;4199193;28;20078;-56
2023/06/02 03:14:03;;;;;;;23.88;13.95;;;12.50;99.30;;;;;;4199877;28;20102;-57
2023/06/02 03:16:06;;;;;;;18.65;13.30;;;12.50;99.40;;;;;;4200405;28;20117;-58
2023/06/02 03:18:08;;;;;;;31.48;15.23;;;12.40;99.60;;;;;;4200295;28;20048;-56
2023/06/02 03:20:12;;;;;;;21.35;13.65;;;12.30;99.60;;;;;;4200043;28;20494;-57
2023/06/02 03:22:15;;;;;;;24.27;13.98;;;12.30;99.60;;;;;;4198496;28;20048;-56
2023/06/02 03:24:18;;;;;;;23.58;13.05;;;12.30;99.70;;;;;;4199991;28;20049;-57
2023/06/02 03:26:25;;;;;;;25.27;14.77;;;12.30;99.70;;;;;;4204636;28;20044;-56
2023/06/02 03:28:27;;;;;;;26.63;14.85;;;12.30;99.80;;;;;;4216218;28;20078;-56
2023/06/02 03:30:30;;;;;;;25.98;14.98;;;12.20;99.70;;;;;;4216278;28;20040;-56
2023/06/02 03:32:32;;;;;;;23.77;16.33;;;12.20;99.80;;;;;;4215723;28;20131;-56
2023/06/02 03:34:35;;;;;;;21.33;13.95;;;12.10;99.90;;;;;;4216157;28;20067;-56
2023/06/02 03:36:39;;;;;;;25.40;14.55;;;12.20;99.90;;;;;;4216204;28;20533;-56
2023/06/02 03:38:41;;;;;;;18.50;14.20;;;12.10;99.90;;;;;;4207929;28;20270;-56
2023/06/02 03:40:44;;;;;;;23.02;15.00;;;12.20;99.90;;;;;;4198836;28;20513;-57
2023/06/02 03:42:46;;;;;;;22.23;14.80;;;12.20;99.90;;;;;;4198936;28;20131;-56
2023/06/02 03:44:48;;;;;;;22.73;14.45;;;12.20;99.80;;;;;;4199233;28;20040;-56
2023/06/02 03:46:50;;;;;;;21.05;13.02;;;12.30;99.90;;;;;;4199528;28;20076;-57
2023/06/02 03:48:53;;;;;;;21.95;15.00;;;12.30;99.70;;;;;;4199945;28;20127;-56
2023/06/02 03:50:54;;;;;;;28.10;15.98;;;12.30;99.60;;;;;;4199068;28;20482;-57
2023/06/02 03:52:58;;;;;;;26.55;15.75;;;12.40;99.50;;;;;;4199811;28;20067;-58
2023/06/02 03:55:01;;;;;;;25.77;15.57;;;12.30;99.40;;;;;;4199787;28;20147;-57
2023/06/02 03:57:03;;;;;;;28.08;16.05;;;12.30;99.50;;;;;;4202211;28;20052;-56
2023/06/02 03:59:05;;;;;;;24.20;15.70;;;12.30;99.60;;;;;;4202960;28;20501;-61
2023/06/02 04:01:08;;;;;;;22.70;14.80;;;12.30;99.50;;;;;;4201830;28;20177;-57
2023/06/02 04:03:11;;;;;;;26.48;16.63;;;12.30;99.50;;;;;;4199682;28;20060;-56
2023/06/02 04:05:14;;;;;;;29.60;16.85;;;12.30;99.40;;;;;;4199297;28;20094;-56
2023/06/02 04:07:16;;;;;;;26.10;16.35;;;12.30;99.40;;;;;;4198529;28;20542;-56
2023/06/02 04:09:20;;;;;;;23.02;16.27;;;12.30;99.40;;;;;;4199496;28;20051;-56
2023/06/02 04:11:22;;;;;;;25.10;17.52;;;12.20;99.60;;;;;;4197538;28;20049;-57
2023/06/02 04:13:24;;;;;;;28.75;17.55;;;12.20;99.50;;;;;;4198969;28;20056;-56
2023/06/02 04:15:27;;;;;;;27.67;17.52;;;12.20;99.70;;;;;;4199409;28;20545;-57
2023/06/02 04:17:28;;;;;;;28.48;16.55;;;12.10;99.70;;;;;;4199226;28;20471;-56
2023/06/02 04:19:31;;;;;;;25.02;17.40;;;12.20;99.60;;;;;;4199432;28;20128;-56
2023/06/02 04:21:33;;;;;;;24.42;16.40;;;12.20;99.70;;;;;;4196912;28;20114;-54
2023/06/02 04:23:35;;;;;;;26.20;16.73;;;12.20;99.80;;;;;;4198760;28;20105;-53
2023/06/02 04:25:38;;;;;;;29.52;17.90;;;12.20;99.60;;;;;;4198748;28;20044;-54
2023/06/02 04:27:40;;;;;;;22.73;16.33;;;12.20;99.70;;;;;;4215055;28;20478;-54
2023/06/02 04:29:43;;;;;;;25.27;17.45;;;12.10;99.50;;;;;;4215411;28;20075;-54
2023/06/02 04:31:50;;;;;;;25.02;16.45;;;12.20;99.50;;;;;;4214746;28;20477;-54
2023/06/02 04:33:53;;;;;;;23.23;16.73;;;12.20;99.50;;;;;;4215343;28;20075;-54
2023/06/02 04:35:56;;;;;;;28.13;16.92;;;12.20;99.40;;;;;;4215573;28;20047;-54
2023/06/02 04:37:58;;;;;;;25.23;17.08;;;12.20;99.40;;;;;;4212674;28;20048;-55
2023/06/02 04:40:01;;;;;;;22.60;15.95;;;12.30;99.30;;;;;;4198445;28;20052;-54
2023/06/02 04:42:06;;;;;;;29.05;17.05;;;12.30;99.30;;;;;;4197665;28;20051;-54
2023/06/02 04:44:08;;;;;;;26.98;16.48;;;12.30;99.20;;;;;;4198856;28;20059;-54
2023/06/02 04:46:10;;;;;;;26.42;16.05;;;12.40;99.00;;;;;;4199642;28;20052;-54
2023/06/02 04:48:13;;;;;;;26.45;17.80;;;12.30;99.00;;;;;;4198923;28;20044;-54
2023/06/02 04:50:17;;;;;;;24.70;16.23;;;12.40;98.80;;;;;;4198868;28;20049;-54
2023/06/02 04:52:20;;;;;;;22.48;17.20;;;12.40;98.80;;;;;;4197333;28;20036;-56
2023/06/02 04:54:22;;;;;;;28.42;16.23;;;12.30;99.20;;;;;;4198269;28;20048;-57
2023/06/02 04:56:26;;;;;;;31.52;17.45;;;12.30;98.90;;;;;;4198320;28;20053;-55
2023/06/02 04:58:30;;;;;;;29.80;17.02;;;12.40;98.80;;;;;;4198363;28;20048;-57
2023/06/02 05:00:34;;;;;;;25.98;16.45;;;12.40;98.60;;;;;;4198353;28;20436;-57
2023/06/02 05:02:36;;;;;;;27.27;17.98;;;12.40;98.70;;;;;;4197138;28;20048;-57
2023/06/02 05:04:38;;;;;;;24.90;16.70;;;12.50;98.40;;;;;;4198113;28;20048;-57
2023/06/02 05:06:40;;;;;;;22.38;16.40;;;12.50;98.50;;;;;;4198400;28;20119;-56
2023/06/02 05:08:42;;;;;;;24.30;16.15;;;12.50;98.40;;;;;;4198450;28;20059;-56
2023/06/02 05:10:44;;;;;;;30.27;16.08;;;12.50;98.40;;;;;;4196645;28;20131;-57
2023/06/02 05:12:47;;;;;;;26.45;17.00;;;12.50;98.40;;;;;;4195712;28;20056;-56
2023/06/02 05:14:51;;;;;;;27.55;17.58;;;12.50;98.20;;;;;;4197950;28;20040;-56
2023/06/02 05:16:54;;;;;;;23.38;17.88;;;12.40;98.20;;;;;;4198273;28;20064;-57
2023/06/02 05:18:57;;;;;;;23.85;17.10;;;12.40;98.10;;;;;;4198011;28;20128;-56
2023/06/02 05:21:00;;;;;;;27.65;17.73;;;12.40;98.40;;;;;;4197424;28;20121;-57
2023/06/02 05:23:02;;;;;;;26.50;17.65;;;12.50;98.20;;;;;;4197114;28;20127;-55
2023/06/02 05:25:04;;;;;;;26.80;18.45;;;12.50;97.90;;;;;;4197661;28;20084;-55
2023/06/02 05:27:09;;;;;;;23.83;18.67;;;12.60;97.80;;;;;;4209747;28;20386;-54
2023/06/02 05:29:11;;;;;;;36.55;18.95;;;12.50;97.70;;;;;;4215080;28;20489;-55
2023/06/02 05:31:15;;;;;;;24.83;18.58;;;12.60;97.50;;;;;;4195963;28;20051;-55
2023/06/02 05:33:17;;;;;;;28.13;19.08;;;12.60;97.50;;;;;;4214749;28;20052;-53
2023/06/02 05:35:19;;;;;;;40.13;19.92;;;12.60;97.50;;;;;;4198116;28;20147;-55
2023/06/02 05:37:22;;;;;;;26.80;19.55;;;12.60;97.40;;;;;;4197749;28;20183;-55
2023/06/02 05:39:24;;;;;;;27.35;18.60;;;12.60;97.50;;;;;;4212577;28;20074;-64
2023/06/02 05:41:28;;;;;;;31.70;19.33;;;12.60;97.50;;;;;;4215067;28;20076;-58
2023/06/02 05:43:30;;;;;;;59.85;22.50;;;12.60;97.40;;;;;;4214035;28;20056;-57
2023/06/02 05:45:32;;;;;;;38.58;20.80;;;12.60;97.40;;;;;;4214302;28;20075;-58
2023/06/02 05:47:35;;;;;;;50.40;19.88;;;12.70;97.30;;;;;;4214470;28;20123;-56
2023/06/02 05:49:38;;;;;;;36.35;18.77;;;12.70;97.20;;;;;;4214073;28;20052;-57
2023/06/02 05:51:40;;;;;;;26.38;18.52;;;12.70;97.10;;;;;;4213317;28;20048;-56
2023/06/02 05:53:42;;;;;;;28.13;19.17;;;12.70;97.10;;;;;;4195892;28;20064;-57
2023/06/02 05:55:44;;;;;;;30.00;19.60;;;12.80;97.00;;;;;;4196211;28;20083;-57
2023/06/02 05:57:46;;;;;;;27.42;18.83;;;12.90;96.80;;;;;;4214164;28;20078;-57
2023/06/02 05:59:48;;;;;;;33.10;18.63;;;12.90;96.80;;;;;;4214068;28;20044;-58
2023/06/02 06:01:50;;;;;;;35.58;19.92;;;13.00;96.60;;;;;;4213355;28;20079;-56
2023/06/02 06:03:54;;;;;;;30.23;18.98;;;13.00;96.50;;;;;;4213966;28;20131;-56
2023/06/02 06:05:56;;;;;;;30.70;20.17;;;13.00;96.60;;;;;;4213832;28;20044;-56
2023/06/02 06:07:58;;;;;;;36.75;19.73;;;13.00;96.40;;;;;;4213673;28;20044;-57
2023/06/02 06:10:00;;;;;;;31.45;19.35;;;13.00;96.40;;;;;;4214163;28;20064;-57
2023/06/02 06:12:03;;;;;;;32.15;19.27;;;13.00;96.50;;;;;;4212931;28;20047;-58
2023/06/02 06:14:07;;;;;;;26.42;19.80;;;13.00;96.30;;;;;;4213957;28;20131;-57
2023/06/02 06:16:10;;;;;;;33.78;20.90;;;13.00;96.60;;;;;;4213919;28;20417;-57
2023/06/02 06:18:13;;;;;;;26.40;19.65;;;12.90;96.50;;;;;;4213968;28;20039;-57
2023/06/02 06:20:16;;;;;;;39.60;18.92;;;13.00;96.60;;;;;;4213942;28;20503;-57
2023/06/02 06:22:18;;;;;;;28.35;18.27;;;13.10;96.50;;;;;;4212377;28;20093;-57
2023/06/02 06:24:20;;;;;;;28.08;18.98;;;13.20;96.30;;;;;;4213807;28;20046;-57
2023/06/02 06:26:22;;;;;;;27.52;18.90;;;13.30;96.00;;;;;;4195819;28;20044;-58
2023/06/02 06:28:24;;;;;;;24.15;17.88;;;13.40;96.00;;;;;;4213840;28;20533;-58
2023/06/02 06:30:27;;;;;;;29.33;18.58;;;13.30;96.00;;;;;;4213879;28;20044;-57
2023/06/02 06:32:29;;;;;;;37.35;18.58;;;13.40;96.00;;;;;;4212515;28;20052;-57
2023/06/02 06:34:31;;;;;;;28.95;17.48;;;13.50;95.70;;;;;;4213478;28;20058;-57
2023/06/02 06:36:35;;;;;;;25.75;18.23;;;13.70;95.40;;;;;;4213879;28;20052;-57
2023/06/02 06:38:38;;;;;;;30.00;19.20;;;13.60;95.50;;;;;;4205805;28;20509;-57
2023/06/02 06:40:40;;;;;;;26.30;18.38;;;13.60;95.20;;;;;;4195530;28;20041;-58
2023/06/02 06:42:42;;;;;;;24.08;17.92;;;13.50;95.00;;;;;;4195823;28;20505;-58
2023/06/02 06:44:45;;;;;;;25.92;17.80;;;13.50;95.00;;;;;;4197397;28;20055;-58
2023/06/02 06:46:48;;;;;;;26.02;17.73;;;13.40;95.00;;;;;;4197215;28;20138;-58
2023/06/02 06:48:51;;;;;;;36.03;19.60;;;13.50;95.10;;;;;;4197132;28;20051;-57
2023/06/02 06:50:53;;;;;;;30.02;18.25;;;13.60;94.90;;;;;;4197007;28;20390;-58
2023/06/02 06:52:57;;;;;;;27.13;17.27;;;13.60;94.70;;;;;;4195754;28;20055;-58
2023/06/02 06:54:59;;;;;;;34.25;17.60;;;13.70;94.70;;;;;;4196855;28;20041;-57
2023/06/02 06:57:01;;;;;;;32.88;17.40;;;13.70;94.50;;;;;;4197077;28;20048;-57
2023/06/02 06:59:03;;;;;;;27.23;17.83;;;13.80;94.40;;;;;;4197186;28;20469;-57
2023/06/02 07:01:05;;;;;;;28.30;18.20;;;13.90;94.20;;;;;;4195978;28;20112;-57
2023/06/02 07:03:07;;;;;;;23.48;17.00;;;13.80;94.10;;;;;;4195868;28;20087;-57
2023/06/02 07:05:10;;;;;;;22.83;17.25;;;13.80;94.20;;;;;;4196466;28;20045;-58
2023/06/02 07:07:13;;;;;;;22.70;18.05;;;13.90;94.00;;;;;;4197760;28;20044;-58
2023/06/02 07:09:16;;;;;;;30.80;16.83;;;14.10;93.90;;;;;;4199165;28;20483;-60
2023/06/02 07:11:18;;;;;;;30.67;17.40;;;14.10;93.90;;;;;;4198608;28;20045;-59
2023/06/02 07:13:21;;;;;;;23.70;16.58;;;14.10;93.60;;;;;;4198260;28;20440;-58
2023/06/02 07:15:23;;;;;;;22.95;14.82;;;14.10;93.80;;;;;;4198650;28;20409;-63
2023/06/02 07:17:25;;;;;;;21.17;15.23;;;14.10;93.70;;;;;;4198390;28;20048;-58
2023/06/02 07:19:27;;;;;;;29.13;13.45;;;14.40;93.50;;;;;;4199568;28;20044;-58
2023/06/02 07:21:29;;;;;;;29.55;13.07;;;14.90;93.20;;;;;;4198868;28;20410;-58
2023/06/02 07:23:32;;;;;;;22.77;12.45;;;15.20;92.20;;;;;;4198814;28;20044;-59
2023/06/02 07:25:36;;;;;;;32.03;12.98;;;15.60;92.30;;;;;;4197504;28;20117;-57
2023/06/02 07:27:39;;;;;;;27.88;12.15;;;15.80;91.40;;;;;;4212601;28;20397;-57
2023/06/02 07:29:41;;;;;;;33.38;11.43;;;16.00;91.40;;;;;;4213397;28;20083;-58
2023/06/02 07:31:43;;;;;;;30.30;11.45;;;16.20;90.70;;;;;;4212260;28;20075;-57
2023/06/02 07:33:45;;;;;;;25.58;11.40;;;16.10;90.40;;;;;;4212896;28;20059;-57
2023/06/02 07:35:47;;;;;;;20.05;11.75;;;16.00;90.20;;;;;;4213223;28;20048;-57
2023/06/02 07:37:50;;;;;;;18.02;11.10;;;16.20;90.20;;;;;;4211899;28;20583;-57
2023/06/02 07:39:52;;;;;;;32.05;10.95;;;16.40;90.30;;;;;;4195411;28;20052;-57
2023/06/02 07:41:56;;;;;;;12.35;9.45;;;16.30;90.00;;;;;;4195934;28;20533;-57
2023/06/02 07:44:03;;;;;;;19.98;9.93;;;16.30;90.00;;;;;;4195115;28;20466;-57
2023/06/02 07:46:10;;;;;;;12.85;8.65;;;16.30;90.00;;;;;;4196717;28;20076;-57
2023/06/02 07:48:12;;;;;;;16.00;9.25;;;16.30;90.10;;;;;;4199207;28;20123;-57
2023/06/02 07:50:14;;;;;;;23.02;10.68;;;16.20;90.20;;;;;;4199335;28;20044;-57
2023/06/02 07:52:17;;;;;;;18.33;9.75;;;15.70;90.00;;;;;;4198192;28;20474;-58
2023/06/02 07:54:24;;;;;;;21.98;10.18;;;15.40;90.60;;;;;;4199482;28;20083;-57
2023/06/02 07:56:26;;;;;;;18.73;10.52;;;15.50;90.60;;;;;;4199608;28;20072;-57
2023/06/02 07:58:34;;;;;;;22.15;9.55;;;15.30;90.80;;;;;;4199266;28;20044;-58
2023/06/02 08:00:38;;;;;;;17.80;9.40;;;15.00;91.00;;;;;;4199777;28;20044;-58
2023/06/02 08:02:41;;;;;;;22.98;10.02;;;15.20;91.20;;;;;;4199250;28;20045;-60
2023/06/02 08:04:43;;;;;;;23.27;9.75;;;15.20;91.00;;;;;;4199425;28;20045;-58
2023/06/02 08:06:45;;;;;;;20.77;8.85;;;15.30;91.00;;;;;;4199608;28;20109;-58
2023/06/02 08:08:48;;;;;;;16.77;9.07;;;15.40;91.00;;;;;;4199503;28;20068;-58
2023/06/02 08:10:50;;;;;;;21.52;9.80;;;15.60;90.60;;;;;;4199473;28;20482;-62
2023/06/02 08:12:52;;;;;;;15.60;9.90;;;15.60;90.70;;;;;;4197840;28;20041;-57
2023/06/02 08:14:56;;;;;;;18.48;11.15;;;15.60;90.50;;;;;;4198836;28;20051;-58
2023/06/02 08:16:58;;;;;;;20.08;10.68;;;15.40;90.40;;;;;;4199146;28;20452;-57
2023/06/02 08:19:00;;;;;;;24.65;10.63;;;15.30;90.70;;;;;;4198792;28;20075;-57
2023/06/02 08:21:07;;;;;;;13.63;9.30;;;15.40;90.70;;;;;;4198913;28;20053;-56
2023/06/02 08:23:10;;;;;;;15.57;11.32;;;15.60;90.50;;;;;;4197972;28;20056;-58
2023/06/02 08:25:12;;;;;;;17.85;12.07;;;15.50;90.40;;;;;;4198659;28;20043;-58
2023/06/02 08:27:15;;;;;;;21.17;11.93;;;15.40;90.80;;;;;;4211000;28;20079;-57
2023/06/02 08:29:18;;;;;;;18.88;11.02;;;15.60;90.50;;;;;;4215609;28;20044;-58
2023/06/02 08:31:22;;;;;;;14.38;11.10;;;15.90;90.50;;;;;;4197375;28;20053;-58
2023/06/02 08:33:25;;;;;;;44.40;11.57;;;16.20;89.90;;;;;;4214094;28;20075;-57
2023/06/02 08:35:28;;;;;;;22.77;9.93;;;16.30;89.20;;;;;;4215452;28;20036;-57
2023/06/02 08:37:32;;;;;;;20.58;10.90;;;16.40;89.20;;;;;;4215340;28;20048;-58
2023/06/02 08:39:34;;;;;;;20.65;11.13;;;16.40;88.50;;;;;;4199209;28;20127;-58
2023/06/02 08:41:39;;;;;;;17.55;11.00;;;16.30;89.10;;;;;;4198518;28;20045;-58
2023/06/02 08:43:41;;;;;;;16.95;11.55;;;16.20;88.50;;;;;;4196242;28;20052;-57
2023/06/02 08:45:45;;;;;;;13.55;11.13;;;16.30;88.20;;;;;;4197210;28;20119;-57
2023/06/02 08:47:52;;;;;;;21.63;10.70;;;16.10;88.90;;;;;;4198096;28;20052;-57
2023/06/02 08:49:56;;;;;;;19.67;11.38;;;16.10;89.10;;;;;;4197272;28;20052;-57
2023/06/02 08:52:03;;;;;;;25.58;11.93;;;16.30;88.30;;;;;;4197472;28;20144;-57
2023/06/02 08:54:06;;;;;;;19.95;11.10;;;16.20;88.30;;;;;;4198472;28;20071;-57
2023/06/02 08:56:08;;;;;;;21.00;10.63;;;16.40;88.90;;;;;;4198277;28;20428;-57
2023/06/02 08:58:11;;;;;;;16.13;11.35;;;16.50;87.70;;;;;;4197430;28;20057;-57
2023/06/02 09:00:15;;;;;;;18.08;10.60;;;16.30;87.70;;;;;;4198218;28;20589;-57
2023/06/02 09:02:18;;;;;;;17.70;9.93;;;16.50;88.10;;;;;;4196867;28;20056;-57
2023/06/02 09:04:22;;;;;;;17.93;10.77;;;16.70;87.50;;;;;;4198579;28;20152;-57
2023/06/02 09:06:26;;;;;;;26.70;10.55;;;16.80;87.40;;;;;;4198175;28;20064;-58
2023/06/02 09:08:33;;;;;;;17.67;9.85;;;16.80;86.80;;;;;;4198447;28;20040;-57
2023/06/02 09:10:40;;;;;;;16.63;9.10;;;16.60;87.20;;;;;;4198170;28;20072;-58
2023/06/02 09:12:48;;;;;;;18.08;10.82;;;16.70;88.00;;;;;;4197241;28;20044;-58
2023/06/02 09:15:09;;;;;;;15.85;10.93;;;16.80;87.50;;;;;;4198333;28;20541;-57
2023/06/02 09:17:25;;;;;;;16.45;10.20;;;16.90;87.00;;;;;;4197794;28;20406;-57
2023/06/02 09:19:48;;;;;;;16.27;10.88;;;16.90;87.20;;;;;;4197812;28;20090;-58
2023/06/02 09:21:51;;;;;;;15.25;10.00;;;16.60;87.30;;;;;;4197307;28;20052;-57
2023/06/02 09:23:55;;;;;;;13.73;9.70;;;16.50;87.60;;;;;;4196659;28;20107;-57
2023/06/02 09:26:21;;;;;;;10.82;9.10;;;16.60;88.00;;;;;;4201742;28;20097;-58
2023/06/02 09:28:24;;;;;;;19.05;7.72;;;16.80;87.90;;;;;;4214511;28;20048;-57
2023/06/02 09:30:28;;;;;;;17.85;10.32;;;17.00;87.80;;;;;;4214343;28;20505;-57
2023/06/02 09:32:34;;;;;;;17.13;10.13;;;17.10;86.70;;;;;;4213828;28;20068;-57
2023/06/02 09:34:38;;;;;;;19.15;9.68;;;17.00;87.50;;;;;;4214207;28;20075;-57
2023/06/02 09:36:41;;;;;;;16.88;9.40;;;16.90;87.20;;;;;;4214423;28;20040;-58
2023/06/02 09:38:43;;;;;;;13.40;9.65;;;16.90;87.50;;;;;;4205687;28;20045;-58
2023/06/02 09:40:45;;;;;;;17.17;10.68;;;17.10;87.00;;;;;;4197172;28;20048;-57
2023/06/02 09:42:47;;;;;;;16.65;9.68;;;16.90;86.80;;;;;;4196465;28;20135;-58
2023/06/02 09:45:03;;;;;;;23.40;11.43;;;17.00;87.20;;;;;;4197205;28;20139;-57
2023/06/02 09:47:19;;;;;;;19.75;11.45;;;17.40;87.00;;;;;;4197474;28;20053;-57
2023/06/02 09:49:21;;;;;;;24.13;11.45;;;17.60;85.60;;;;;;4197426;28;20075;-56
2023/06/02 09:51:25;;;;;;;24.17;11.30;;;17.50;85.10;;;;;;4196175;28;20072;-55
2023/06/02 09:53:28;;;;;;;23.25;10.57;;;17.60;85.40;;;;;;4196484;28;20476;-58
2023/06/02 09:55:35;;;;;;;12.57;9.35;;;17.50;88.10;;;;;;4197180;28;20054;-59
2023/06/02 09:57:40;;;;;;;16.67;9.95;;;17.50;90.40;;;;;;4197426;28;20131;-57
2023/06/02 09:59:43;;;;;;;19.13;10.82;;;17.30;88.80;;;;;;4195874;28;20072;-57
2023/06/02 10:01:48;;;;;;;18.63;9.77;;;17.10;87.50;;;;;;4197325;28;20048;-57
2023/06/02 10:03:50;;;;;;;18.33;9.85;;;17.20;88.60;;;;;;4196742;28;20044;-57
2023/06/02 10:06:07;;;;;;;16.98;11.00;;;17.30;87.80;;;;;;4197341;28;20293;-57
2023/06/02 10:08:20;;;;;;;15.98;9.70;;;17.70;87.70;;;;;;4197305;28;20102;-58
2023/06/02 10:10:30;;;;;;;15.60;9.48;;;18.00;86.90;;;;;;4197096;28;20048;-58
2023/06/02 10:12:43;;;;;;;16.52;10.23;;;18.20;86.70;;;;;;4196115;28;20040;-58
2023/06/02 10:15:09;;;;;;;28.33;12.18;;;18.40;86.60;;;;;;4196875;28;20044;-57
2023/06/02 10:17:20;;;;;;;15.57;10.80;;;18.40;85.70;;;;;;4197398;28;20056;-54
2023/06/02 10:19:44;;;;;;;14.65;11.63;;;18.50;86.00;;;;;;4195941;28;20123;-55
2023/06/02 10:22:01;;;;;;;22.17;11.85;;;18.40;85.20;;;;;;4197554;28;20101;-55
2023/06/02 10:24:14;;;;;;;24.60;12.23;;;18.40;84.80;;;;;;4196538;28;20048;-56
2023/06/02 10:26:29;;;;;;;21.10;11.80;;;18.40;85.30;;;;;;4201861;28;20408;-55
2023/06/02 10:28:32;;;;;;;24.20;12.10;;;18.40;85.40;;;;;;4215146;28;20040;-66
2023/06/02 10:30:37;;;;;;;21.58;11.75;;;18.50;85.40;;;;;;4216307;28;20104;-58